sensor_id;sensor_type;location;lat;lon;timestamp;pressure;altitude;pressure_sealevel;temperature;humidity
38227;BME280;24026;49.446;8.576;2022-09-30T00:01:00;99655.03;;;16.90;51.47
38227;BME280;24026;49.446;8.576;2022-09-30T00:03:55;99663.09;;;16.90;51.61
38227;BME280;24026;49.446;8.576;2022-09-30T00:06:17;99656.94;;;16.90;51.63
38227;BME280;24026;49.446;8.576;2022-09-30T00:08:49;99661.53;;;16.89;51.63
38227;BME280;24026;49.446;8.576;2022-09-30T00:11:17;99651.56;;;16.90;51.74
38227;BME280;24026;49.446;8.576;2022-09-30T00:13:39;99656.47;;;16.88;51.80
38227;BME280;24026;49.446;8.576;2022-09-30T00:16:00;99656.94;;;16.90;51.78
38227;BME280;24026;49.446;8.576;2022-09-30T00:18:21;99659.63;;;16.90;51.69
38227;BME280;24026;49.446;8.576;2022-09-30T00:20:41;99653.78;;;16.88;51.77
38227;BME280;24026;49.446;8.576;2022-09-30T00:23:01;99656.16;;;16.89;51.61
38227;BME280;24026;49.446;8.576;2022-09-30T00:25:29;99656.16;;;16.89;51.94
38227;BME280;24026;49.446;8.576;2022-09-30T00:27:55;99656.47;;;16.88;51.62
38227;BME280;24026;49.446;8.576;2022-09-30T00:30:15;99659.13;;;16.88;51.72
38227;BME280;24026;49.446;8.576;2022-09-30T00:32:36;99661.00;;;16.87;51.90
38227;BME280;24026;49.446;8.576;2022-09-30T00:42:02;99660.78;;;16.83;51.85
38227;BME280;24026;49.446;8.576;2022-09-30T00:58:00;99663.78;;;16.82;52.06
38227;BME280;24026;49.446;8.576;2022-09-30T01:00:22;99659.22;;;16.82;52.16
38227;BME280;24026;49.446;8.576;2022-09-30T01:02:53;99661.91;;;16.82;51.97
38227;BME280;24026;49.446;8.576;2022-09-30T01:05:14;99661.09;;;16.82;52.09
38227;BME280;24026;49.446;8.576;2022-09-30T01:08:38;99659.53;;;16.81;51.94
38227;BME280;24026;49.446;8.576;2022-09-30T01:10:57;99666.75;;;16.80;52.00
38227;BME280;24026;49.446;8.576;2022-09-30T01:13:20;99667.88;;;16.79;52.01
38227;BME280;24026;49.446;8.576;2022-09-30T01:18:31;99675.09;;;16.79;52.00
38227;BME280;24026;49.446;8.576;2022-09-30T01:39:11;99680.56;;;16.74;52.07
38227;BME280;24026;49.446;8.576;2022-09-30T01:41:54;99682.47;;;16.73;52.32
38227;BME280;24026;49.446;8.576;2022-09-30T01:49:51;99673.94;;;16.71;52.23
38227;BME280;24026;49.446;8.576;2022-09-30T01:57:24;99699.34;;;16.74;52.25
38227;BME280;24026;49.446;8.576;2022-09-30T01:59:52;99703.44;;;16.71;52.11
38227;BME280;24026;49.446;8.576;2022-09-30T02:02:27;99706.63;;;16.73;52.17
38227;BME280;24026;49.446;8.576;2022-09-30T02:05:02;99715.75;;;16.72;52.50
38227;BME280;24026;49.446;8.576;2022-09-30T02:07:30;99717.66;;;16.72;52.09
38227;BME280;24026;49.446;8.576;2022-09-30T02:10:05;99712.56;;;16.70;52.32
38227;BME280;24026;49.446;8.576;2022-09-30T02:12:33;99712.56;;;16.70;52.27
38227;BME280;24026;49.446;8.576;2022-09-30T02:15:01;99721.75;;;16.69;52.30
38227;BME280;24026;49.446;8.576;2022-09-30T02:17:27;99718.25;;;16.68;52.34
38227;BME280;24026;49.446;8.576;2022-09-30T02:19:53;99719.34;;;16.67;52.30
38227;BME280;24026;49.446;8.576;2022-09-30T02:22:25;99714.78;;;16.68;52.23
38227;BME280;24026;49.446;8.576;2022-09-30T02:24:52;99714.78;;;16.68;52.18
38227;BME280;24026;49.446;8.576;2022-09-30T02:27:19;99716.66;;;16.67;52.23
38227;BME280;24026;49.446;8.576;2022-09-30T02:29:46;99722.03;;;16.67;52.13
38227;BME280;24026;49.446;8.576;2022-09-30T02:32:23;99724.72;;;16.67;52.34
38227;BME280;24026;49.446;8.576;2022-09-30T02:34:57;99723.13;;;16.66;52.12
38227;BME280;24026;49.446;8.576;2022-09-30T02:37:35;99726.59;;;16.67;52.33
38227;BME280;24026;49.446;8.576;2022-09-30T02:40:36;99728.47;;;16.66;52.37
38227;BME280;24026;49.446;8.576;2022-09-30T02:42:58;99726.09;;;16.65;52.24
38227;BME280;24026;49.446;8.576;2022-09-30T02:45:26;99730.66;;;16.64;52.32
38227;BME280;24026;49.446;8.576;2022-09-30T02:51:02;99729.56;;;16.65;52.24
38227;BME280;24026;49.446;8.576;2022-09-30T02:56:22;99728.78;;;16.65;52.18
38227;BME280;24026;49.446;8.576;2022-09-30T03:01:30;99725.59;;;16.63;52.25
38227;BME280;24026;49.446;8.576;2022-09-30T03:03:57;99724.53;;;16.64;52.33
38227;BME280;24026;49.446;8.576;2022-09-30T03:06:19;99737.13;;;16.63;52.43
38227;BME280;24026;49.446;8.576;2022-09-30T03:08:41;99734.44;;;16.63;52.23
38227;BME280;24026;49.446;8.576;2022-09-30T03:11:01;99745.16;;;16.63;52.22
38227;BME280;24026;49.446;8.576;2022-09-30T03:19:04;99743.59;;;16.62;52.19
38227;BME280;24026;49.446;8.576;2022-09-30T03:24:41;99746.56;;;16.61;52.21
38227;BME280;24026;49.446;8.576;2022-09-30T03:27:43;99748.44;;;16.60;52.17
38227;BME280;24026;49.446;8.576;2022-09-30T03:30:15;99738.81;;;16.59;52.43
38227;BME280;24026;49.446;8.576;2022-09-30T03:36:33;99750.34;;;16.60;52.39
38227;BME280;24026;49.446;8.576;2022-09-30T03:41:49;99746.06;;;16.59;52.52
38227;BME280;24026;49.446;8.576;2022-09-30T03:44:20;99747.16;;;16.58;52.35
38227;BME280;24026;49.446;8.576;2022-09-30T03:46:51;99746.06;;;16.59;52.46
38227;BME280;24026;49.446;8.576;2022-09-30T03:49:34;99753.31;;;16.58;52.43
38227;BME280;24026;49.446;8.576;2022-09-30T03:54:56;99749.34;;;16.56;52.58
38227;BME280;24026;49.446;8.576;2022-09-30T03:57:18;99744.78;;;16.56;52.36
38227;BME280;24026;49.446;8.576;2022-09-30T03:59:42;99745.56;;;16.57;52.58
38227;BME280;24026;49.446;8.576;2022-09-30T04:02:02;99748.53;;;16.55;52.51
38227;BME280;24026;49.446;8.576;2022-09-30T04:04:24;99750.13;;;16.56;52.40
38227;BME280;24026;49.446;8.576;2022-09-30T04:06:45;99753.13;;;16.55;52.27
38227;BME280;24026;49.446;8.576;2022-09-30T04:09:30;99758.47;;;16.55;52.26
38227;BME280;24026;49.446;8.576;2022-09-30T04:11:52;99761.44;;;16.53;52.21
38227;BME280;24026;49.446;8.576;2022-09-30T04:14:12;99756.09;;;16.53;52.35
38227;BME280;24026;49.446;8.576;2022-09-30T04:16:33;99761.75;;;16.52;52.36
38227;BME280;24026;49.446;8.576;2022-09-30T04:18:54;99767.13;;;16.52;52.35
38227;BME280;24026;49.446;8.576;2022-09-30T04:21:34;99771.41;;;16.53;52.46
38227;BME280;24026;49.446;8.576;2022-09-30T04:23:56;99773.25;;;16.52;52.37
38227;BME280;24026;49.446;8.576;2022-09-30T04:26:17;99771.69;;;16.51;52.44
38227;BME280;24026;49.446;8.576;2022-09-30T04:28:42;99777.34;;;16.49;52.56
38227;BME280;24026;49.446;8.576;2022-09-30T04:31:04;99778.44;;;16.48;52.53
38227;BME280;24026;49.446;8.576;2022-09-30T04:33:35;99786.19;;;16.50;52.30
38227;BME280;24026;49.446;8.576;2022-09-30T04:35:57;99787.28;;;16.49;52.30
38227;BME280;24026;49.446;8.576;2022-09-30T04:38:18;99787.59;;;16.47;52.44
38227;BME280;24026;49.446;8.576;2022-09-30T04:40:39;99801.00;;;16.47;52.52
38227;BME280;24026;49.446;8.576;2022-09-30T04:42:59;99798.09;;;16.44;52.57
38227;BME280;24026;49.446;8.576;2022-09-30T04:45:44;99802.06;;;16.46;52.33
38227;BME280;24026;49.446;8.576;2022-09-30T04:48:06;99805.03;;;16.45;52.34
38227;BME280;24026;49.446;8.576;2022-09-30T04:50:26;99816.06;;;16.43;52.47
38227;BME280;24026;49.446;8.576;2022-09-30T04:52:47;99816.06;;;16.43;52.52
38227;BME280;24026;49.446;8.576;2022-09-30T04:55:07;99815.28;;;16.43;52.51
38227;BME280;24026;49.446;8.576;2022-09-30T04:57:29;99822.53;;;16.42;52.27
38227;BME280;24026;49.446;8.576;2022-09-30T04:59:58;99834.34;;;16.41;52.50
38227;BME280;24026;49.446;8.576;2022-09-30T05:02:22;99823.91;;;16.40;52.55
38227;BME280;24026;49.446;8.576;2022-09-30T05:04:43;99826.59;;;16.40;52.50
38227;BME280;24026;49.446;8.576;2022-09-30T05:07:04;99830.34;;;16.39;52.45
38227;BME280;24026;49.446;8.576;2022-09-30T05:09:29;99831.94;;;16.40;52.37
38227;BME280;24026;49.446;8.576;2022-09-30T05:15:31;99846.22;;;16.35;52.60
38227;BME280;24026;49.446;8.576;2022-09-30T05:17:53;99845.44;;;16.35;52.44
38227;BME280;24026;49.446;8.576;2022-09-30T05:20:14;99847.34;;;16.34;52.41
38227;BME280;24026;49.446;8.576;2022-09-30T05:22:34;99847.84;;;16.36;52.45
38227;BME280;24026;49.446;8.576;2022-09-30T05:25:08;99843.56;;;16.35;52.39
38227;BME280;24026;49.446;8.576;2022-09-30T05:27:29;99854.56;;;16.34;52.60
38227;BME280;24026;49.446;8.576;2022-09-30T05:30:04;99856.84;;;16.26;52.35
38227;BME280;24026;49.446;8.576;2022-09-30T05:32:59;99861.34;;;16.12;52.61
38227;BME280;24026;49.446;8.576;2022-09-30T05:35:30;99871.41;;;16.01;52.63
38227;BME280;24026;49.446;8.576;2022-09-30T05:37:53;99866.91;;;15.97;52.68
38227;BME280;24026;49.446;8.576;2022-09-30T05:40:13;99874.66;;;15.98;52.74
38227;BME280;24026;49.446;8.576;2022-09-30T05:42:37;99876.28;;;15.99;52.83
38227;BME280;24026;49.446;8.576;2022-09-30T05:44:57;99876.84;;;15.96;52.78
38227;BME280;24026;49.446;8.576;2022-09-30T05:47:18;99879.25;;;15.98;52.76
38227;BME280;24026;49.446;8.576;2022-09-30T05:49:38;99877.56;;;16.02;52.45
38227;BME280;24026;49.446;8.576;2022-09-30T05:52:01;99884.53;;;16.03;52.38
38227;BME280;24026;49.446;8.576;2022-09-30T05:54:22;99882.13;;;16.01;52.36
38227;BME280;24026;49.446;8.576;2022-09-30T05:56:42;99891.78;;;16.02;52.29
38227;BME280;24026;49.446;8.576;2022-09-30T05:59:05;99901.69;;;16.02;52.48
38227;BME280;24026;49.446;8.576;2022-09-30T06:01:26;99912.63;;;16.05;52.31
38227;BME280;24026;49.446;8.576;2022-09-30T06:03:46;99921.19;;;16.07;52.04
38227;BME280;24026;49.446;8.576;2022-09-30T06:06:07;99919.50;;;16.11;52.25
38227;BME280;24026;49.446;8.576;2022-09-30T06:08:28;99921.63;;;16.15;52.02
38227;BME280;24026;49.446;8.576;2022-09-30T06:10:51;99918.66;;;16.16;51.93
38227;BME280;24026;49.446;8.576;2022-09-30T06:13:11;99918.88;;;16.20;52.02
38227;BME280;24026;49.446;8.576;2022-09-30T06:15:35;99921.25;;;16.21;51.93
38227;BME280;24026;49.446;8.576;2022-09-30T06:17:58;99923.38;;;16.24;51.84
38227;BME280;24026;49.446;8.576;2022-09-30T06:20:19;99925.75;;;16.26;51.96
38227;BME280;24026;49.446;8.576;2022-09-30T06:22:39;99931.13;;;16.26;51.86
38227;BME280;24026;49.446;8.576;2022-09-30T06:25:04;99934.31;;;16.28;51.66
38227;BME280;24026;49.446;8.576;2022-09-30T06:27:34;99946.03;;;16.32;51.62
38227;BME280;24026;49.446;8.576;2022-09-30T06:29:58;99949.53;;;16.33;51.95
38227;BME280;24026;49.446;8.576;2022-09-30T06:32:19;99946.56;;;16.34;51.92
38227;BME280;24026;49.446;8.576;2022-09-30T06:34:47;99946.28;;;16.36;51.73
38227;BME280;24026;49.446;8.576;2022-09-30T06:37:10;99948.13;;;16.35;51.73
38227;BME280;24026;49.446;8.576;2022-09-30T06:39:33;99953.72;;;16.39;51.54
38227;BME280;24026;49.446;8.576;2022-09-30T06:41:57;99958.28;;;16.38;51.78
38227;BME280;24026;49.446;8.576;2022-09-30T06:44:35;99962.66;;;16.34;51.63
38227;BME280;24026;49.446;8.576;2022-09-30T06:47:04;99969.59;;;16.35;51.81
38227;BME280;24026;49.446;8.576;2022-09-30T06:52:21;99967.44;;;16.37;51.78
38227;BME280;24026;49.446;8.576;2022-09-30T06:54:48;99970.63;;;16.39;51.70
38227;BME280;24026;49.446;8.576;2022-09-30T06:57:27;99973.81;;;16.41;51.62
38227;BME280;24026;49.446;8.576;2022-09-30T07:00:07;99975.41;;;16.42;51.55
38227;BME280;24026;49.446;8.576;2022-09-30T07:02:28;99973.81;;;16.41;51.67
38227;BME280;24026;49.446;8.576;2022-09-30T07:04:49;99975.41;;;16.42;51.69
38227;BME280;24026;49.446;8.576;2022-09-30T07:07:10;99976.97;;;16.43;51.66
38227;BME280;24026;49.446;8.576;2022-09-30T07:09:31;99974.81;;;16.45;51.39
38227;BME280;24026;49.446;8.576;2022-09-30T07:11:58;99971.03;;;16.46;51.59
38227;BME280;24026;49.446;8.576;2022-09-30T07:14:19;99976.41;;;16.46;51.65
38227;BME280;24026;49.446;8.576;2022-09-30T07:16:43;99968.56;;;16.50;51.36
38227;BME280;24026;49.446;8.576;2022-09-30T07:19:09;99973.66;;;16.52;51.57
38227;BME280;24026;49.446;8.576;2022-09-30T07:24:56;99976.34;;;16.52;51.41
38227;BME280;24026;49.446;8.576;2022-09-30T07:30:51;99983.81;;;16.55;51.27
38227;BME280;24026;49.446;8.576;2022-09-30T07:33:12;99979.50;;;16.54;51.37
38227;BME280;24026;49.446;8.576;2022-09-30T07:35:35;99998.00;;;16.55;51.56
38227;BME280;24026;49.446;8.576;2022-09-30T07:37:57;99995.03;;;16.57;51.34
38227;BME280;24026;49.446;8.576;2022-09-30T07:40:19;99993.66;;;16.59;51.24
38227;BME280;24026;49.446;8.576;2022-09-30T07:42:42;99993.38;;;16.61;51.29
38227;BME280;24026;49.446;8.576;2022-09-30T07:45:22;100011.34;;;16.60;51.41
38227;BME280;24026;49.446;8.576;2022-09-30T07:47:43;100007.56;;;16.61;51.26
38227;BME280;24026;49.446;8.576;2022-09-30T07:50:04;100018.03;;;16.63;51.53
38227;BME280;24026;49.446;8.576;2022-09-30T07:52:28;100019.91;;;16.62;51.36
38227;BME280;24026;49.446;8.576;2022-09-30T07:54:49;100016.41;;;16.62;51.55
38227;BME280;24026;49.446;8.576;2022-09-30T07:57:28;100027.16;;;16.62;51.82
38227;BME280;24026;49.446;8.576;2022-09-30T07:59:58;100019.38;;;16.60;51.59
38227;BME280;24026;49.446;8.576;2022-09-30T08:02:19;100026.94;;;16.58;51.82
38227;BME280;24026;49.446;8.576;2022-09-30T08:05:11;100034.97;;;16.58;51.84
38227;BME280;24026;49.446;8.576;2022-09-30T08:07:32;100038.31;;;16.50;52.20
38227;BME280;24026;49.446;8.576;2022-09-30T08:09:54;100036.00;;;16.43;52.36
38227;BME280;24026;49.446;8.576;2022-09-30T08:12:14;100041.13;;;16.40;52.38
38227;BME280;24026;49.446;8.576;2022-09-30T08:14:38;100042.16;;;16.44;52.35
38227;BME280;24026;49.446;8.576;2022-09-30T08:16:59;100057.66;;;16.47;52.47
38227;BME280;24026;49.446;8.576;2022-09-30T08:19:22;100054.13;;;16.52;52.16
38227;BME280;24026;49.446;8.576;2022-09-30T08:21:43;100052.22;;;16.52;52.41
38227;BME280;24026;49.446;8.576;2022-09-30T08:24:05;100053.53;;;16.55;52.19
38227;BME280;24026;49.446;8.576;2022-09-30T08:26:37;100052.19;;;16.57;52.13
38227;BME280;24026;49.446;8.576;2022-09-30T08:29:08;100058.84;;;16.60;52.10
38227;BME280;24026;49.446;8.576;2022-09-30T08:31:32;100061.53;;;16.60;52.12
38227;BME280;24026;49.446;8.576;2022-09-30T08:34:03;100060.16;;;16.62;51.85
38227;BME280;24026;49.446;8.576;2022-09-30T08:36:25;100055.59;;;16.63;52.11
38227;BME280;24026;49.446;8.576;2022-09-30T08:44:46;100061.66;;;16.68;51.95
38227;BME280;24026;49.446;8.576;2022-09-30T08:52:35;100075.28;;;16.72;51.74
38227;BME280;24026;49.446;8.576;2022-09-30T08:54:57;100066.97;;;16.74;51.73
38227;BME280;24026;49.446;8.576;2022-09-30T08:57:19;100072.03;;;16.75;51.97
38227;BME280;24026;49.446;8.576;2022-09-30T09:00:00;100072.56;;;16.77;51.96
38227;BME280;24026;49.446;8.576;2022-09-30T09:02:30;100074.16;;;16.78;51.88
38227;BME280;24026;49.446;8.576;2022-09-30T09:04:58;100072.78;;;16.81;51.90
38227;BME280;24026;49.446;8.576;2022-09-30T09:07:39;100065.50;;;16.81;51.94
38227;BME280;24026;49.446;8.576;2022-09-30T09:27:58;100070.03;;;17.05;51.46
38227;BME280;24026;49.446;8.576;2022-09-30T09:30:22;100069.94;;;17.10;51.25
38227;BME280;24026;49.446;8.576;2022-09-30T09:32:46;100073.13;;;17.12;51.02
38227;BME280;24026;49.446;8.576;2022-09-30T09:41:37;100055.47;;;17.25;50.85
38227;BME280;24026;49.446;8.576;2022-09-30T09:47:21;100062.06;;;17.33;50.82
38227;BME280;24026;49.446;8.576;2022-09-30T09:50:12;100067.06;;;17.39;50.71
38227;BME280;24026;49.446;8.576;2022-09-30T09:55:36;100067.75;;;17.45;50.60
38227;BME280;24026;49.446;8.576;2022-09-30T09:58:11;100063.72;;;17.48;50.49
38227;BME280;24026;49.446;8.576;2022-09-30T10:00:42;100070.84;;;17.52;50.66
38227;BME280;24026;49.446;8.576;2022-09-30T10:06:08;100079.66;;;17.58;50.71
38227;BME280;24026;49.446;8.576;2022-09-30T10:08:55;100068.59;;;17.59;50.45
38227;BME280;24026;49.446;8.576;2022-09-30T10:11:21;100066.13;;;17.63;50.34
38227;BME280;24026;49.446;8.576;2022-09-30T10:13:45;100067.09;;;17.67;50.34
38227;BME280;24026;49.446;8.576;2022-09-30T10:16:30;100064.31;;;17.72;50.18
38227;BME280;24026;49.446;8.576;2022-09-30T10:18:54;100066.72;;;17.74;50.28
38227;BME280;24026;49.446;8.576;2022-09-30T10:21:27;100059.47;;;17.74;50.10
38227;BME280;24026;49.446;8.576;2022-09-30T10:23:57;100066.41;;;17.75;50.18
38227;BME280;24026;49.446;8.576;2022-09-30T10:26:22;100067.44;;;17.80;50.04
38227;BME280;24026;49.446;8.576;2022-09-30T10:28:57;100061.47;;;17.83;50.00
38227;BME280;24026;49.446;8.576;2022-09-30T10:31:40;100057.91;;;17.87;49.85
38227;BME280;24026;49.446;8.576;2022-09-30T10:34:26;100046.34;;;17.87;49.76
38227;BME280;24026;49.446;8.576;2022-09-30T10:36:48;100048.44;;;17.90;49.72
38227;BME280;24026;49.446;8.576;2022-09-30T10:42:17;100060.09;;;17.99;49.85
38227;BME280;24026;49.446;8.576;2022-09-30T10:44:51;100061.41;;;18.02;49.94
38227;BME280;24026;49.446;8.576;2022-09-30T10:47:19;100058.72;;;18.02;49.62
38227;BME280;24026;49.446;8.576;2022-09-30T10:53:16;100047.25;;;18.10;49.50
38227;BME280;24026;49.446;8.576;2022-09-30T10:55:43;100035.41;;;18.11;49.29
38227;BME280;24026;49.446;8.576;2022-09-30T11:05:09;100037.88;;;18.21;49.22
38227;BME280;24026;49.446;8.576;2022-09-30T11:07:51;100040.47;;;18.26;49.17
38227;BME280;24026;49.446;8.576;2022-09-30T11:10:44;100040.66;;;18.30;48.93
38227;BME280;24026;49.446;8.576;2022-09-30T11:13:22;100036.88;;;18.31;48.69
38227;BME280;24026;49.446;8.576;2022-09-30T11:16:11;100037.66;;;18.31;48.82
38227;BME280;24026;49.446;8.576;2022-09-30T11:30:00;100048.25;;;18.28;48.79
38227;BME280;24026;49.446;8.576;2022-09-30T11:32:47;100054.91;;;18.30;49.07
38227;BME280;24026;49.446;8.576;2022-09-30T11:41:31;100044.84;;;18.36;48.72
38227;BME280;24026;49.446;8.576;2022-09-30T11:44:37;100048.03;;;18.38;48.70
38227;BME280;24026;49.446;8.576;2022-09-30T12:00:12;100044.81;;;18.50;48.39
38227;BME280;24026;49.446;8.576;2022-09-30T12:02:53;100041.31;;;18.49;48.17
38227;BME280;24026;49.446;8.576;2022-09-30T12:05:25;100039.13;;;18.51;48.22
38227;BME280;24026;49.446;8.576;2022-09-30T12:11:00;100044.69;;;18.55;48.51
38227;BME280;24026;49.446;8.576;2022-09-30T12:13:33;100047.06;;;18.57;48.42
38227;BME280;24026;49.446;8.576;2022-09-30T12:15:56;100050.06;;;18.55;48.19
38227;BME280;24026;49.446;8.576;2022-09-30T12:21:39;100045.19;;;18.57;48.50
38227;BME280;24026;49.446;8.576;2022-09-30T12:24:13;100051.88;;;18.60;48.08
38227;BME280;24026;49.446;8.576;2022-09-30T12:26:36;100046.97;;;18.62;48.16
38227;BME280;24026;49.446;8.576;2022-09-30T12:29:10;100051.56;;;18.61;47.99
38227;BME280;24026;49.446;8.576;2022-09-30T12:42:56;100061.69;;;18.78;46.96
38227;BME280;24026;49.446;8.576;2022-09-30T12:47:52;100058.09;;;18.83;47.28
38227;BME280;24026;49.446;8.576;2022-09-30T12:50:26;100070.94;;;18.86;47.23
38227;BME280;24026;49.446;8.576;2022-09-30T12:56:07;100058.78;;;18.88;46.96
38227;BME280;24026;49.446;8.576;2022-09-30T13:01:55;100060.69;;;18.88;46.78
38227;BME280;24026;49.446;8.576;2022-09-30T13:04:29;100061.66;;;18.92;46.48
38227;BME280;24026;49.446;8.576;2022-09-30T13:07:28;100057.25;;;18.96;46.38
38227;BME280;24026;49.446;8.576;2022-09-30T13:10:24;100047.28;;;18.97;46.38
38227;BME280;24026;49.446;8.576;2022-09-30T13:12:46;100058.53;;;18.99;46.33
38227;BME280;24026;49.446;8.576;2022-09-30T13:17:47;100061.22;;;18.99;46.55
38227;BME280;24026;49.446;8.576;2022-09-30T13:23:37;100063.13;;;18.98;45.05
38227;BME280;24026;49.446;8.576;2022-09-30T13:28:26;100077.97;;;18.96;45.22
38227;BME280;24026;49.446;8.576;2022-09-30T13:31:13;100068.50;;;18.98;45.16
38227;BME280;24026;49.446;8.576;2022-09-30T13:36:37;100070.22;;;18.94;44.32
38227;BME280;24026;49.446;8.576;2022-09-30T13:48:27;100068.69;;;19.02;44.70
38227;BME280;24026;49.446;8.576;2022-09-30T13:50:53;100069.66;;;19.06;44.86
38227;BME280;24026;49.446;8.576;2022-09-30T13:53:20;100063.31;;;19.24;44.07
38227;BME280;24026;49.446;8.576;2022-09-30T13:55:49;100065.38;;;19.50;43.33
38227;BME280;24026;49.446;8.576;2022-09-30T14:00:50;100065.38;;;19.28;44.38
38227;BME280;24026;49.446;8.576;2022-09-30T14:05:51;100064.53;;;19.18;44.31
38227;BME280;24026;49.446;8.576;2022-09-30T14:08:46;100062.94;;;19.17;44.13
38227;BME280;24026;49.446;8.576;2022-09-30T14:17:25;100060.53;;;19.16;44.11
38227;BME280;24026;49.446;8.576;2022-09-30T14:22:18;100054.84;;;19.17;44.05
38227;BME280;24026;49.446;8.576;2022-09-30T14:24:40;100060.25;;;19.17;44.13
38227;BME280;24026;49.446;8.576;2022-09-30T14:27:21;100049.47;;;19.17;44.30
38227;BME280;24026;49.446;8.576;2022-09-30T14:30:10;100046.00;;;19.17;44.12
38227;BME280;24026;49.446;8.576;2022-09-30T14:33:09;100053.28;;;19.16;43.83
38227;BME280;24026;49.446;8.576;2022-09-30T14:36:00;100048.69;;;19.17;43.60
38227;BME280;24026;49.446;8.576;2022-09-30T14:38:43;100048.19;;;19.15;43.52
38227;BME280;24026;49.446;8.576;2022-09-30T14:41:23;100044.69;;;19.14;43.76
38227;BME280;24026;49.446;8.576;2022-09-30T14:44:00;100048.50;;;19.13;43.03
38227;BME280;24026;49.446;8.576;2022-09-30T14:46:32;100050.91;;;19.15;43.59
38227;BME280;24026;49.446;8.576;2022-09-30T14:48:58;100053.88;;;19.13;43.10
38227;BME280;24026;49.446;8.576;2022-09-30T14:51:40;100051.69;;;19.15;43.21
38227;BME280;24026;49.446;8.576;2022-09-30T14:54:13;100057.84;;;19.16;42.95
38227;BME280;24026;49.446;8.576;2022-09-30T14:56:35;100060.53;;;19.16;42.92
38227;BME280;24026;49.446;8.576;2022-09-30T14:58:58;100056.47;;;19.18;43.17
38227;BME280;24026;49.446;8.576;2022-09-30T15:01:19;100053.47;;;19.20;42.79
38227;BME280;24026;49.446;8.576;2022-09-30T15:03:44;100052.16;;;19.17;43.07
38227;BME280;24026;49.446;8.576;2022-09-30T15:06:25;100067.22;;;19.18;42.80
38227;BME280;24026;49.446;8.576;2022-09-30T15:08:47;100053.28;;;19.16;42.50
38227;BME280;24026;49.446;8.576;2022-09-30T15:11:34;100052.47;;;19.16;42.62
38227;BME280;24026;49.446;8.576;2022-09-30T15:16:30;100058.97;;;19.15;43.00
38227;BME280;24026;49.446;8.576;2022-09-30T15:21:53;100052.97;;;19.18;43.15
38227;BME280;24026;49.446;8.576;2022-09-30T15:24:24;100044.38;;;19.16;42.82
38227;BME280;24026;49.446;8.576;2022-09-30T15:33:31;100050.03;;;19.05;42.96
38227;BME280;24026;49.446;8.576;2022-09-30T15:36:04;100047.63;;;19.04;42.93
38227;BME280;24026;49.446;8.576;2022-09-30T15:38:28;100047.16;;;19.02;42.72
38227;BME280;24026;49.446;8.576;2022-09-30T15:41:05;100047.34;;;19.05;42.70
38227;BME280;24026;49.446;8.576;2022-09-30T15:43:35;100044.34;;;19.07;43.21
38227;BME280;24026;49.446;8.576;2022-09-30T15:46:15;100042.63;;;19.11;42.87
38227;BME280;24026;49.446;8.576;2022-09-30T15:49:29;100047.19;;;19.11;42.89
38227;BME280;24026;49.446;8.576;2022-09-30T15:51:52;100041.81;;;19.11;42.58
38227;BME280;24026;49.446;8.576;2022-09-30T15:54:34;100042.31;;;19.13;42.73
38227;BME280;24026;49.446;8.576;2022-09-30T15:57:01;100041.50;;;19.12;42.68
38227;BME280;24026;49.446;8.576;2022-09-30T16:02:38;100039.59;;;19.13;43.18
38227;BME280;24026;49.446;8.576;2022-09-30T16:04:59;100045.00;;;19.13;43.15
38227;BME280;24026;49.446;8.576;2022-09-30T16:07:28;100037.25;;;19.11;43.21
38227;BME280;24026;49.446;8.576;2022-09-30T16:15:55;100032.78;;;19.06;43.37
38227;BME280;24026;49.446;8.576;2022-09-30T16:18:28;100037.03;;;19.07;43.30
38227;BME280;24026;49.446;8.576;2022-09-30T16:21:01;100040.56;;;19.08;42.97
38227;BME280;24026;49.446;8.576;2022-09-30T16:26:43;100043.38;;;19.03;43.37
38227;BME280;24026;49.446;8.576;2022-09-30T16:29:04;100036.38;;;19.02;43.58
38227;BME280;24026;49.446;8.576;2022-09-30T16:31:26;100041.75;;;19.02;43.42
38227;BME280;24026;49.446;8.576;2022-09-30T16:33:46;100045.56;;;19.01;43.30
38227;BME280;24026;49.446;8.576;2022-09-30T16:36:09;100039.69;;;18.99;43.54
38227;BME280;24026;49.446;8.576;2022-09-30T16:38:32;100038.09;;;18.98;43.45
38227;BME280;24026;49.446;8.576;2022-09-30T16:40:52;100042.97;;;18.96;43.50
38227;BME280;24026;49.446;8.576;2022-09-30T16:43:12;100040.28;;;18.96;43.53
38227;BME280;24026;49.446;8.576;2022-09-30T16:45:43;100041.41;;;18.95;43.58
38227;BME280;24026;49.446;8.576;2022-09-30T16:48:14;100044.09;;;18.95;43.49
38227;BME280;24026;49.446;8.576;2022-09-30T16:50:39;100044.72;;;18.92;43.98
38227;BME280;24026;49.446;8.576;2022-09-30T16:53:03;100047.69;;;18.90;43.79
38227;BME280;24026;49.446;8.576;2022-09-30T16:55:25;100049.59;;;18.90;43.66
38227;BME280;24026;49.446;8.576;2022-09-30T16:57:46;100046.09;;;18.89;43.93
38227;BME280;24026;49.446;8.576;2022-09-30T17:00:39;100046.41;;;18.87;43.85
38227;BME280;24026;49.446;8.576;2022-09-30T17:03:01;100050.50;;;18.85;43.79
38227;BME280;24026;49.446;8.576;2022-09-30T17:05:25;100055.41;;;18.83;43.97
38227;BME280;24026;49.446;8.576;2022-09-30T17:07:50;100065.06;;;18.84;44.05
38227;BME280;24026;49.446;8.576;2022-09-30T17:10:30;100064.56;;;18.82;44.03
38227;BME280;24026;49.446;8.576;2022-09-30T17:12:51;100069.44;;;18.80;44.03
38227;BME280;24026;49.446;8.576;2022-09-30T17:15:12;100057.88;;;18.79;43.90
38227;BME280;24026;49.446;8.576;2022-09-30T17:17:33;100070.84;;;18.77;44.10
38227;BME280;24026;49.446;8.576;2022-09-30T17:19:56;100064.66;;;18.77;43.92
38227;BME280;24026;49.446;8.576;2022-09-30T17:22:17;100067.97;;;18.74;44.28
38227;BME280;24026;49.446;8.576;2022-09-30T17:24:40;100070.66;;;18.74;44.18
38227;BME280;24026;49.446;8.576;2022-09-30T17:27:13;100078.72;;;18.74;43.88
38227;BME280;24026;49.446;8.576;2022-09-30T17:29:33;100078.25;;;18.72;44.18